createdAt,value
2023-04-22T00:00:09.749Z,11.56
2023-04-22T00:02:38.848Z,11.56
2023-04-22T00:05:09.845Z,11.52
2023-04-22T00:07:37.993Z,11.48
2023-04-22T00:10:06.528Z,11.50
2023-04-22T00:12:34.327Z,11.50
2023-04-22T00:15:02.379Z,11.49
2023-04-22T00:17:30.274Z,11.48
2023-04-22T00:19:58.336Z,11.52
2023-04-22T00:22:27.433Z,11.51
2023-04-22T00:24:55.307Z,11.52
2023-04-22T00:27:23.129Z,11.45
2023-04-22T00:29:51.419Z,11.47
2023-04-22T00:32:22.396Z,11.43
2023-04-22T00:34:50.379Z,11.44
2023-04-22T00:37:18.281Z,11.33
2023-04-22T00:39:47.480Z,11.38
2023-04-22T00:42:15.930Z,11.38
2023-04-22T00:44:43.766Z,11.39
2023-04-22T00:47:11.797Z,11.45
2023-04-22T00:49:40.858Z,11.42
2023-04-22T00:52:09.297Z,11.39
2023-04-22T00:54:37.324Z,11.39
2023-04-22T00:57:07.024Z,11.38
2023-04-22T00:59:35.668Z,11.39
2023-04-22T01:02:05.360Z,11.40
2023-04-22T01:04:36.552Z,11.41
2023-04-22T01:07:04.492Z,11.40
2023-04-22T01:09:32.699Z,11.39
2023-04-22T01:12:01.515Z,11.35
2023-04-22T01:14:30.977Z,11.37
2023-04-22T01:16:58.863Z,11.33
2023-04-22T01:19:29.525Z,11.29
2023-04-22T01:21:59.807Z,11.30
2023-04-22T01:24:29.256Z,11.26
2023-04-22T01:26:57.357Z,11.24
2023-04-22T01:29:25.684Z,11.20
2023-04-22T01:31:53.928Z,11.15
2023-04-22T01:34:21.950Z,11.07
2023-04-22T01:36:50.574Z,11.05
2023-04-22T01:39:19.736Z,10.98
2023-04-22T01:41:50.010Z,10.99
2023-04-22T01:44:21.514Z,10.97
2023-04-22T01:46:49.621Z,10.86
2023-04-22T01:49:17.940Z,10.87
2023-04-22T01:51:45.792Z,10.91
2023-04-22T01:54:14.703Z,10.82
2023-04-22T01:56:44.237Z,10.78
2023-04-22T01:59:14.353Z,10.84
2023-04-22T02:01:42.408Z,10.77
2023-04-22T02:04:10.319Z,10.85
2023-04-22T02:06:38.109Z,10.84
2023-04-22T02:09:08.251Z,10.87
2023-04-22T02:11:36.527Z,10.89
2023-04-22T02:14:04.723Z,10.90
2023-04-22T02:16:34.844Z,10.87
2023-04-22T02:19:02.612Z,10.83
2023-04-22T02:21:32.482Z,10.86
2023-04-22T02:24:00.208Z,10.86
2023-04-22T02:26:30.999Z,10.83
2023-04-22T02:29:59.026Z,10.82
2023-04-22T02:32:29.181Z,10.77
2023-04-22T02:34:56.948Z,10.74
2023-04-22T02:37:24.604Z,10.68
2023-04-22T02:39:52.289Z,10.72
2023-04-22T02:42:19.919Z,10.75
2023-04-22T02:44:47.843Z,10.67
2023-04-22T02:47:15.555Z,10.66
2023-04-22T02:49:44.596Z,10.71
2023-04-22T02:52:12.518Z,10.66
2023-04-22T02:54:40.299Z,10.58
2023-04-22T02:57:08.109Z,10.50
2023-04-22T02:59:36.125Z,10.48
2023-04-22T03:02:06.705Z,10.45
2023-04-22T03:04:56.250Z,10.44
2023-04-22T03:07:24.230Z,10.47
2023-04-22T03:09:51.921Z,10.47
2023-04-22T03:12:20.221Z,10.39
2023-04-22T03:14:48.078Z,10.43
2023-04-22T03:17:16.276Z,10.41
2023-04-22T03:19:44.176Z,10.39
2023-04-22T03:22:13.955Z,10.35
2023-04-22T03:24:41.813Z,10.28
2023-04-22T03:27:11.139Z,10.29
2023-04-22T03:29:39.149Z,10.28
2023-04-22T03:32:07.121Z,10.28
2023-04-22T03:34:37.404Z,10.22
2023-04-22T03:37:07.137Z,10.27
2023-04-22T03:39:36.469Z,10.26
2023-04-22T03:42:04.890Z,10.26
2023-04-22T03:44:34.035Z,10.25
2023-04-22T03:47:03.206Z,10.20
2023-04-22T03:49:37.016Z,10.18
2023-04-22T03:52:05.374Z,10.10
2023-04-22T03:54:36.035Z,10.03
2023-04-22T03:57:03.725Z,10.06
2023-04-22T03:59:31.506Z,10.05
2023-04-22T04:01:59.324Z,10.06
2023-04-22T04:04:28.149Z,10.07
2023-04-22T04:07:00.347Z,10.07
2023-04-22T04:09:29.013Z,10.01
2023-04-22T04:11:59.079Z,9.92
2023-04-22T04:14:31.063Z,9.84
2023-04-22T04:16:59.843Z,9.86
2023-04-22T04:19:31.012Z,9.81
2023-04-22T04:21:59.101Z,9.87
2023-04-22T04:24:28.755Z,9.90
2023-04-22T04:27:05.055Z,9.90
2023-04-22T04:29:41.549Z,9.91
2023-04-22T04:32:14.776Z,9.88
2023-04-22T04:34:43.827Z,9.93
2023-04-22T04:37:14.668Z,9.90
2023-04-22T04:39:55.564Z,9.84
2023-04-22T04:42:30.328Z,9.87
2023-04-22T04:45:03.508Z,9.85
2023-04-22T04:47:33.836Z,9.90
2023-04-22T04:50:12.498Z,9.92
2023-04-22T04:52:40.730Z,9.95
2023-04-22T04:55:09.586Z,9.87
2023-04-22T04:57:39.472Z,9.95
2023-04-22T05:00:08.861Z,9.98
2023-04-22T05:02:36.967Z,9.99
2023-04-22T05:05:05.210Z,10.02
2023-04-22T05:07:33.334Z,10.08
2023-04-22T05:10:02.305Z,10.11
2023-04-22T05:12:30.725Z,10.19
2023-04-22T05:15:00.337Z,10.24
2023-04-22T05:17:29.364Z,10.30
2023-04-22T05:19:57.735Z,10.36
2023-04-22T05:22:25.764Z,10.42
2023-04-22T05:24:54.905Z,10.48
2023-04-22T05:27:23.350Z,10.55
2023-04-22T05:29:51.445Z,10.54
2023-04-22T05:32:27.518Z,10.48
2023-04-22T05:34:55.464Z,10.42
2023-04-22T05:37:23.688Z,10.38
2023-04-22T05:39:53.015Z,10.33
2023-04-22T05:42:22.431Z,10.31
2023-04-22T05:44:51.189Z,10.32
2023-04-22T05:47:19.362Z,10.37
2023-04-22T05:49:48.780Z,10.45
2023-04-22T05:52:20.857Z,10.54
2023-04-22T05:54:59.836Z,10.59
2023-04-22T05:57:28.425Z,10.82
2023-04-22T05:59:56.328Z,10.87
2023-04-22T06:02:27.839Z,11.04
2023-04-22T06:04:59.816Z,11.12
2023-04-22T06:07:29.051Z,11.02
2023-04-22T06:10:05.175Z,10.94
2023-04-22T06:12:34.719Z,11.00
2023-04-22T06:15:02.986Z,11.05
2023-04-22T06:17:31.944Z,11.15
2023-04-22T06:20:01.720Z,11.37
2023-04-22T06:22:31.819Z,11.59
2023-04-22T06:24:59.504Z,11.72
2023-04-22T06:27:27.888Z,11.81
2023-04-22T06:29:55.607Z,11.86
2023-04-22T06:32:33.019Z,11.94
2023-04-22T06:35:02.376Z,11.98
2023-04-22T06:37:30.594Z,12.07
2023-04-22T06:39:58.430Z,12.26
2023-04-22T06:42:41.873Z,12.35
2023-04-22T06:45:28.777Z,12.55
2023-04-22T06:48:15.018Z,12.61
2023-04-22T06:51:07.058Z,12.80
2023-04-22T06:53:35.018Z,13.08
2023-04-22T06:56:02.853Z,13.30
2023-04-22T06:58:31.029Z,13.46
2023-04-22T07:00:59.327Z,13.60
2023-04-22T07:03:28.009Z,13.67
2023-04-22T07:06:02.966Z,14.01
2023-04-22T07:08:35.132Z,14.02
2023-04-22T07:11:03.645Z,14.05
2023-04-22T07:14:02.769Z,13.95
2023-04-22T07:16:34.530Z,13.98
2023-04-22T07:19:02.647Z,13.85
2023-04-22T07:21:32.631Z,13.79
2023-04-22T07:24:02.389Z,13.99
2023-04-22T07:26:34.532Z,14.15
2023-04-22T07:29:02.445Z,14.74
2023-04-22T07:31:31.840Z,15.79
2023-04-22T07:33:59.918Z,16.29
2023-04-22T07:36:28.231Z,16.51
2023-04-22T07:38:56.090Z,16.27
2023-04-22T07:41:25.151Z,15.98
2023-04-22T07:43:52.881Z,15.75
2023-04-22T07:46:21.059Z,15.50
2023-04-22T07:48:49.439Z,15.56
2023-04-22T07:51:17.975Z,15.84
2023-04-22T07:53:45.711Z,16.07
2023-04-22T07:56:16.849Z,16.71
2023-04-22T07:58:46.079Z,16.62
2023-04-22T08:01:13.788Z,16.59
2023-04-22T08:03:41.883Z,16.46
2023-04-22T08:06:09.833Z,16.51
2023-04-22T08:08:37.714Z,16.88
2023-04-22T08:11:05.939Z,16.73
2023-04-22T08:13:34.600Z,16.67
2023-04-22T08:16:04.088Z,16.62
2023-04-22T08:18:31.983Z,16.46
2023-04-22T08:21:00.231Z,16.58
2023-04-22T08:23:28.653Z,16.45
2023-04-22T08:25:56.751Z,16.50
2023-04-22T08:28:24.519Z,16.65
2023-04-22T08:30:52.248Z,16.76
2023-04-22T08:33:21.562Z,16.89
2023-04-22T08:35:49.857Z,17.18
2023-04-22T08:38:17.565Z,16.79
2023-04-22T08:40:47.385Z,16.72
2023-04-22T08:43:16.588Z,16.61
2023-04-22T08:45:46.001Z,16.70
2023-04-22T08:48:14.520Z,17.02
2023-04-22T08:50:43.946Z,17.06
2023-04-22T08:53:12.213Z,17.21
2023-04-22T08:55:41.562Z,17.46
2023-04-22T08:58:09.805Z,17.68
2023-04-22T09:00:37.996Z,17.75
2023-04-22T09:03:07.693Z,18.08
2023-04-22T09:05:38.515Z,18.06
2023-04-22T09:08:08.823Z,17.78
2023-04-22T09:10:39.140Z,17.81
2023-04-22T09:13:07.827Z,17.73
2023-04-22T09:15:35.819Z,17.74
2023-04-22T09:18:05.511Z,17.65
2023-04-22T09:20:33.222Z,17.58
2023-04-22T09:23:04.360Z,17.44
2023-04-22T09:25:36.332Z,17.50
2023-04-22T09:28:04.511Z,17.52
2023-04-22T09:30:34.132Z,17.96
2023-04-22T09:33:04.287Z,18.09
2023-04-22T09:35:33.765Z,18.29
2023-04-22T09:38:03.130Z,18.09
2023-04-22T09:40:33.284Z,18.07
2023-04-22T09:43:03.041Z,18.01
2023-04-22T09:45:32.984Z,18.09
2023-04-22T09:48:04.131Z,18.26
2023-04-22T09:50:31.874Z,18.35
2023-04-22T09:53:01.470Z,18.91
2023-04-22T09:55:31.741Z,18.98
2023-04-22T09:58:07.473Z,19.20
2023-04-22T10:00:37.779Z,19.25
2023-04-22T10:03:08.032Z,19.98
2023-04-22T10:05:38.794Z,20.38
2023-04-22T10:08:08.175Z,20.79
2023-04-22T10:10:36.782Z,21.03
2023-04-22T10:13:06.914Z,20.94
2023-04-22T10:15:37.607Z,20.92
2023-04-22T10:18:08.811Z,21.13
2023-04-22T10:20:38.831Z,20.87
2023-04-22T10:23:13.305Z,20.92
2023-04-22T10:25:41.733Z,21.12
2023-04-22T10:28:12.145Z,21.32
2023-04-22T10:30:41.161Z,20.81
2023-04-22T10:33:42.032Z,20.80
2023-04-22T10:36:16.625Z,20.73
2023-04-22T10:39:18.082Z,20.79
2023-04-22T10:41:53.576Z,20.93
2023-04-22T10:44:23.596Z,21.12
2023-04-22T10:46:59.630Z,21.25
2023-04-22T10:49:30.285Z,21.38
2023-04-22T10:52:01.091Z,21.34
2023-04-22T10:54:58.410Z,21.31
2023-04-22T10:57:37.827Z,21.22
2023-04-22T11:00:25.529Z,21.29
2023-04-22T11:02:56.127Z,21.67
2023-04-22T11:05:27.176Z,21.72
2023-04-22T11:07:56.733Z,22.04
2023-04-22T11:10:37.227Z,22.04
2023-04-22T11:13:07.066Z,22.33
2023-04-22T11:15:38.662Z,22.33
2023-04-22T11:18:11.062Z,22.75
2023-04-22T11:20:39.088Z,22.97
2023-04-22T11:23:07.076Z,23.16
2023-04-22T11:25:34.782Z,23.81
2023-04-22T11:28:02.600Z,23.53
2023-04-22T11:30:31.562Z,23.49
2023-04-22T11:33:01.892Z,23.33
2023-04-22T11:35:32.612Z,23.82
2023-04-22T11:38:02.703Z,23.82
2023-04-22T11:40:35.374Z,23.53
2023-04-22T11:43:07.072Z,23.70
2023-04-22T11:45:36.259Z,24.00
2023-04-22T11:48:07.701Z,24.46
2023-04-22T11:50:36.989Z,24.30
2023-04-22T11:53:06.061Z,24.47
2023-04-22T11:55:36.484Z,24.43
2023-04-22T11:58:08.350Z,24.75
2023-04-22T12:00:38.034Z,24.04
2023-04-22T12:03:15.265Z,23.16
2023-04-22T12:05:44.950Z,23.68
2023-04-22T12:08:14.509Z,23.81
2023-04-22T12:10:44.169Z,23.86
2023-04-22T12:13:18.605Z,24.24
2023-04-22T12:15:47.102Z,24.19
2023-04-22T12:18:16.143Z,23.90
2023-04-22T12:20:44.166Z,23.43
2023-04-22T12:23:15.835Z,23.07
2023-04-22T12:25:44.960Z,22.44
2023-04-22T12:28:14.225Z,22.32
2023-04-22T12:30:42.327Z,21.65
2023-04-22T12:33:10.277Z,21.01
2023-04-22T12:35:39.432Z,20.85
2023-04-22T12:38:07.482Z,20.50
2023-04-22T12:40:35.196Z,20.40
2023-04-22T12:43:05.967Z,20.21
2023-04-22T12:45:34.009Z,20.12
2023-04-22T12:48:02.399Z,19.83
2023-04-22T12:50:30.299Z,19.85
2023-04-22T12:52:59.378Z,19.94
2023-04-22T12:55:27.447Z,19.86
2023-04-22T12:57:55.744Z,20.01
2023-04-22T13:00:24.340Z,20.01
2023-04-22T13:02:52.731Z,20.01
2023-04-22T13:05:21.584Z,19.89
2023-04-22T13:07:59.675Z,19.77
2023-04-22T13:10:35.712Z,19.62
2023-04-22T13:13:16.671Z,19.44
2023-04-22T13:15:45.978Z,19.32
2023-04-22T13:18:13.759Z,19.38
2023-04-22T13:20:42.413Z,19.30
2023-04-22T13:23:10.670Z,19.16
2023-04-22T13:25:39.843Z,19.10
2023-04-22T13:28:07.723Z,19.15
2023-04-22T13:30:35.477Z,19.36
2023-04-22T13:33:03.442Z,19.13
2023-04-22T13:35:32.064Z,18.97
2023-04-22T13:38:00.160Z,19.13
2023-04-22T13:40:28.231Z,19.03
2023-04-22T13:42:57.565Z,18.90
2023-04-22T13:45:26.130Z,18.94
2023-04-22T13:47:54.865Z,19.26
2023-04-22T13:50:23.752Z,19.38
2023-04-22T13:52:51.555Z,19.40
2023-04-22T13:55:19.501Z,19.48
2023-04-22T13:57:47.623Z,19.12
2023-04-22T14:00:17.684Z,19.05
2023-04-22T14:02:45.678Z,18.92
2023-04-22T14:05:14.084Z,18.80
2023-04-22T14:07:41.869Z,18.86
2023-04-22T14:10:12.062Z,18.89
2023-04-22T14:12:40.677Z,18.88
2023-04-22T14:15:10.923Z,18.89
2023-04-22T14:17:40.252Z,18.93
2023-04-22T14:20:11.043Z,18.92
2023-04-22T14:22:39.470Z,19.02
2023-04-22T14:25:08.558Z,19.12
2023-04-22T14:27:36.559Z,19.03
2023-04-22T14:30:05.792Z,18.96
2023-04-22T14:32:34.103Z,18.84
2023-04-22T14:35:03.523Z,18.83
2023-04-22T14:37:32.144Z,18.84
2023-04-22T14:40:00.032Z,18.86
2023-04-22T14:42:28.931Z,18.84
2023-04-22T14:44:56.668Z,18.67
2023-04-22T14:47:24.525Z,18.52
2023-04-22T14:49:53.734Z,18.37
2023-04-22T14:52:23.192Z,18.40
2023-04-22T14:54:52.185Z,18.37
2023-04-22T14:57:20.004Z,18.35
2023-04-22T14:59:48.065Z,18.36
2023-04-22T15:02:16.812Z,18.39
2023-04-22T15:04:45.264Z,18.43
2023-04-22T15:07:13.401Z,18.59
2023-04-22T15:09:43.095Z,18.67
2023-04-22T15:12:11.226Z,18.76
2023-04-22T15:14:39.966Z,18.79
2023-04-22T15:17:08.198Z,18.74
2023-04-22T15:19:36.359Z,18.73
2023-04-22T15:22:04.035Z,18.69
2023-04-22T15:24:32.045Z,18.54
2023-04-22T15:27:02.890Z,18.44
2023-04-22T15:29:32.370Z,18.39
2023-04-22T15:32:00.205Z,18.33
2023-04-22T15:34:27.932Z,18.29
2023-04-22T15:36:55.762Z,18.32
2023-04-22T15:39:25.247Z,18.34
2023-04-22T15:41:53.357Z,18.29
2023-04-22T15:44:23.488Z,18.28
2023-04-22T15:46:52.966Z,18.31
2023-04-22T15:49:21.160Z,18.30
2023-04-22T15:51:48.938Z,18.32
2023-04-22T15:54:17.386Z,18.32
2023-04-22T15:56:45.423Z,18.25
2023-04-22T15:59:13.508Z,18.32
2023-04-22T16:01:45.861Z,18.28
2023-04-22T16:04:14.230Z,18.37
2023-04-22T16:06:42.282Z,18.38
2023-04-22T16:09:10.758Z,18.43
2023-04-22T16:11:38.773Z,18.46
2023-04-22T16:14:06.420Z,18.44
2023-04-22T16:16:34.795Z,18.42
2023-04-22T16:19:03.912Z,18.38
2023-04-22T16:21:32.399Z,18.34
2023-04-22T16:24:00.959Z,18.30
2023-04-22T16:26:29.064Z,18.22
2023-04-22T16:28:56.786Z,18.14
2023-04-22T16:31:25.125Z,18.12
2023-04-22T16:33:53.223Z,18.17
2023-04-22T16:36:22.750Z,18.15
2023-04-22T16:38:50.866Z,18.10
2023-04-22T16:41:19.033Z,18.05
2023-04-22T16:43:46.739Z,18.00
2023-04-22T16:46:14.716Z,17.95
2023-04-22T16:48:43.386Z,17.87
2023-04-22T16:51:11.917Z,17.77
2023-04-22T16:53:41.290Z,17.69
2023-04-22T16:56:08.985Z,17.54
2023-04-22T16:58:36.902Z,17.46
2023-04-22T17:01:05.328Z,17.33
2023-04-22T17:03:33.426Z,17.31
2023-04-22T17:06:01.484Z,17.33
2023-04-22T17:08:29.326Z,17.40
2023-04-22T17:10:58.769Z,17.44
2023-04-22T17:13:26.817Z,17.38
2023-04-22T17:15:54.827Z,17.40
2023-04-22T17:18:22.922Z,17.39
2023-04-22T17:20:50.718Z,17.37
2023-04-22T17:23:19.734Z,17.32
2023-04-22T17:25:47.788Z,17.44
2023-04-22T17:28:17.308Z,17.42
2023-04-22T17:30:45.191Z,17.53
2023-04-22T17:33:13.108Z,17.54
2023-04-22T17:35:41.882Z,17.56
2023-04-22T17:38:09.566Z,17.69
2023-04-22T17:40:37.404Z,17.83
2023-04-22T17:43:05.156Z,17.82
2023-04-22T17:45:35.053Z,17.70
2023-04-22T17:48:02.896Z,17.64
2023-04-22T17:50:30.889Z,17.54
2023-04-22T17:53:01.185Z,17.49
2023-04-22T17:55:30.310Z,17.43
2023-04-22T17:58:00.352Z,17.33
2023-04-22T18:00:28.309Z,17.22
2023-04-22T18:02:57.699Z,17.20
2023-04-22T18:05:26.994Z,17.16
2023-04-22T18:07:58.116Z,17.21
2023-04-22T18:10:25.974Z,17.14
2023-04-22T18:12:54.821Z,17.19
2023-04-22T18:15:23.433Z,17.30
2023-04-22T18:17:51.308Z,17.01
2023-04-22T18:20:21.844Z,17.12
2023-04-22T18:22:51.973Z,16.99
2023-04-22T18:25:21.688Z,16.88
2023-04-22T18:27:50.575Z,16.80
2023-04-22T18:30:18.424Z,16.68
2023-04-22T18:32:46.172Z,16.67
2023-04-22T18:35:15.788Z,16.93
2023-04-22T18:37:44.895Z,16.77
2023-04-22T18:40:13.718Z,16.73
2023-04-22T18:42:44.512Z,16.57
2023-04-22T18:45:12.841Z,16.57
2023-04-22T18:47:41.297Z,16.49
2023-04-22T18:50:09.723Z,16.53
2023-04-22T18:52:37.924Z,16.48
2023-04-22T18:55:07.648Z,16.45
2023-04-22T18:57:35.705Z,16.56
2023-04-22T19:00:05.517Z,16.40
2023-04-22T19:02:35.543Z,16.28
2023-04-22T19:05:06.339Z,16.24
2023-04-22T19:07:34.040Z,16.14
2023-04-22T19:10:01.919Z,16.21
2023-04-22T19:12:31.117Z,16.05
2023-04-22T19:15:00.210Z,15.96
2023-04-22T19:17:28.842Z,15.90
2023-04-22T19:19:56.603Z,15.93
2023-04-22T19:22:24.695Z,15.87
2023-04-22T19:24:52.559Z,15.84
2023-04-22T19:27:20.345Z,15.82
2023-04-22T19:29:51.680Z,15.70
2023-04-22T19:32:19.788Z,15.73
2023-04-22T19:34:50.007Z,15.67
2023-04-22T19:37:18.179Z,15.62
2023-04-22T19:39:45.982Z,15.62
2023-04-22T19:42:14.099Z,15.68
2023-04-22T19:44:46.396Z,15.61
2023-04-22T19:47:16.340Z,15.62
2023-04-22T19:49:44.883Z,15.61
2023-04-22T19:52:15.407Z,15.53
2023-04-22T19:54:47.671Z,15.57
2023-04-22T19:57:16.686Z,15.61
2023-04-22T19:59:46.976Z,15.51
2023-04-22T20:02:16.647Z,15.33
2023-04-22T20:04:47.319Z,15.33
2023-04-22T20:07:16.411Z,15.33
2023-04-22T20:09:46.260Z,15.19
2023-04-22T20:12:14.489Z,15.17
2023-04-22T20:14:43.292Z,15.12
2023-04-22T20:17:11.569Z,15.04
2023-04-22T20:19:41.116Z,14.87
2023-04-22T20:22:11.540Z,14.78
2023-04-22T20:24:40.955Z,14.71
2023-04-22T20:27:08.833Z,14.62
2023-04-22T20:29:38.165Z,14.50
2023-04-22T20:32:07.191Z,14.40
2023-04-22T20:34:35.993Z,14.39
2023-04-22T20:37:09.569Z,14.39
2023-04-22T20:39:38.776Z,14.25
2023-04-22T20:42:07.470Z,14.04
2023-04-22T20:44:35.709Z,14.02
2023-04-22T20:47:03.339Z,14.01
2023-04-22T20:49:31.241Z,13.93
2023-04-22T20:52:00.426Z,13.89
2023-04-22T20:54:30.396Z,13.84
2023-04-22T20:56:58.849Z,13.87
2023-04-22T20:59:26.565Z,13.92
2023-04-22T21:01:55.416Z,13.94
2023-04-22T21:04:23.994Z,13.95
2023-04-22T21:06:53.357Z,13.94
2023-04-22T21:09:22.784Z,13.90
2023-04-22T21:11:52.396Z,13.86
2023-04-22T21:14:22.141Z,13.89
2023-04-22T21:16:58.769Z,13.84
2023-04-22T21:19:27.355Z,13.74
2023-04-22T21:21:59.337Z,13.70
2023-04-22T21:24:28.416Z,13.68
2023-04-22T21:26:58.984Z,13.63
2023-04-22T21:29:27.191Z,13.57
2023-04-22T21:32:08.190Z,13.48
2023-04-22T21:34:38.615Z,13.48
2023-04-22T21:37:07.898Z,13.44
2023-04-22T21:39:36.747Z,13.48
2023-04-22T21:42:08.137Z,13.44
2023-04-22T21:44:37.751Z,13.35
2023-04-22T21:47:06.888Z,13.33
2023-04-22T21:49:34.936Z,13.35
2023-04-22T21:52:02.915Z,13.34
2023-04-22T21:54:30.655Z,13.38
2023-04-22T21:56:58.672Z,13.43
2023-04-22T21:59:27.842Z,13.36
2023-04-22T22:01:55.960Z,13.33
2023-04-22T22:04:23.703Z,13.26
2023-04-22T22:06:51.498Z,13.18
2023-04-22T22:09:19.227Z,13.12
2023-04-22T22:11:47.065Z,13.12
2023-04-22T22:14:14.834Z,13.15
2023-04-22T22:16:45.031Z,13.12
2023-04-22T22:19:13.895Z,13.10
2023-04-22T22:21:41.944Z,13.13
2023-04-22T22:24:10.477Z,13.08
2023-04-22T22:26:40.952Z,13.04
2023-04-22T22:29:15.066Z,13.05
2023-04-22T22:31:44.256Z,13.02
2023-04-22T22:34:12.361Z,12.99
2023-04-22T22:36:40.167Z,13.01
2023-04-22T22:39:10.101Z,13.02
2023-04-22T22:41:39.694Z,12.97
2023-04-22T22:44:08.688Z,12.92
2023-04-22T22:46:38.366Z,12.92
2023-04-22T22:49:07.489Z,12.89
2023-04-22T22:51:37.503Z,12.85
2023-04-22T22:54:05.831Z,12.86
2023-04-22T22:56:33.593Z,12.78
2023-04-22T22:59:01.442Z,12.79
2023-04-22T23:01:29.255Z,12.76
2023-04-22T23:03:57.228Z,12.79
2023-04-22T23:06:27.211Z,12.77
2023-04-22T23:08:54.890Z,12.80
2023-04-22T23:11:23.010Z,12.82
2023-04-22T23:13:51.054Z,12.83
2023-04-22T23:16:18.953Z,12.85
2023-04-22T23:18:47.694Z,12.82
2023-04-22T23:21:16.257Z,12.77
2023-04-22T23:23:46.234Z,12.80
2023-04-22T23:26:14.340Z,12.80
2023-04-22T23:28:42.717Z,12.92
2023-04-22T23:31:11.552Z,12.81
2023-04-22T23:33:43.157Z,12.82
2023-04-22T23:36:13.800Z,12.81
2023-04-22T23:38:41.797Z,12.78
2023-04-22T23:41:11.289Z,12.77
2023-04-22T23:43:39.061Z,12.70
2023-04-22T23:46:07.220Z,12.74
2023-04-22T23:48:35.968Z,12.73
2023-04-22T23:51:03.994Z,12.76
2023-04-22T23:53:31.911Z,12.76
2023-04-22T23:56:00.863Z,12.76
2023-04-22T23:58:30.426Z,12.77
